| Date | Time | Temp. (oF) | Dew Point (oF) | Rel. Hum. (%) | Press. (in.) | Wind Dir. | Wind Speed (mph) | Hourly Rainfall (in.) |
|
|---|---|---|---|---|---|---|---|---|---|
| 1 | 01/25 | 00:00 | 40 | 34 | 80 | 29.59 | NW | 6 | 0.00 |
| 2 | 01/24 | 23:00 | 40 | 34 | 80 | 29.60 | NW | 5 | 0.00 |
| 3 | 01/24 | 22:00 | 40 | 34 | 81 | 29.59 | NW | 4 | 0.00 |
| 4 | 01/24 | 21:00 | 40 | 34 | 80 | 29.58 | NW | 9 | 0.00 |
| 5 | 01/24 | 20:00 | 40 | 34 | 79 | 29.56 | NW | 9 | 0.00 |
| 6 | 01/24 | 19:00 | 39 | 33 | 81 | 29.54 | NW | 5 | 0.00 |
| 7 | 01/24 | 18:00 | 39 | 34 | 83 | 29.52 | NW | 11 | 0.00 |
| 8 | 01/24 | 17:00 | 40 | 34 | 80 | 29.50 | NW | 10 | 0.00 |
| 9 | 01/24 | 16:00 | 40 | 33 | 78 | 29.48 | NW | 9 | 0.00 |
| 10 | 01/24 | 15:00 | 40 | 33 | 77 | 29.46 | WNW | 5 | 0.00 |
| 11 | 01/24 | 14:00 | 39 | 33 | 79 | 29.45 | WNW | 17 | 0.00 |
| 12 | 01/24 | 13:00 | 39 | 34 | 83 | 29.44 | WNW | 10 | 0.00 |
| 13 | 01/24 | 12:00 | 42 | 36 | 82 | 29.45 | WNW | 6 | 0.00 |
| 14 | 01/24 | 11:00 | 40 | 35 | 85 | 29.45 | WNW | 12 | 0.00 |
| 15 | 01/24 | 10:00 | 38 | 35 | 91 | 29.48 | WNW | 7 | 0.00 |
| 16 | 01/24 | 09:00 | 36 | 35 | 99 | 29.46 | WNW | 6 | 0.00 |
| 17 | 01/24 | 08:00 | 35 | 35 | 100 | 29.46 | WNW | 10 | 0.00 |
| 18 | 01/24 | 07:00 | 34 | 33 | 100 | 29.46 | S | 6 | 0.00 |
| 19 | 01/24 | 06:00 | 34 | 33 | 100 | 29.44 | WNW | 5 | 0.00 |
| 20 | 01/24 | 05:00 | 34 | 33 | 100 | 29.43 | WNW | 8 | 0.01 |
| 21 | 01/24 | 04:00 | 34 | 33 | 100 | 29.44 | WNW | 7 | 0.02 |
| 22 | 01/24 | 03:00 | 36 | 35 | 98 | 29.45 | WNW | 8 | 0.00 |
| 23 | 01/24 | 02:00 | 36 | 34 | 96 | 29.44 | WNW | 4 | 0.00 |
| 24 | 01/24 | 01:00 | 36 | 34 | 96 | 29.45 | WNW | 6 | 0.00 |